Time;durP1;ratioP1;P1;durP2;ratioP2;P2;SDS_P1;SDS_P2;PMS_P1;PMS_P2;Temp;Humidity;BMP_temperature;BMP_pressure;BME280_temperature;BME280_humidity;BME280_pressure;Samples;Min_cycle;Max_cycle;Signal;HPM_P1;HPM_P2
2023/12/23 00:00:12;;;;;;;;;;;10.40;99.90;;;;;;5057194;28;20374;-79
2023/12/23 00:02:37;;;;;;;;;;;10.50;99.90;;;;;;5057141;28;19919;-75
2023/12/23 00:05:03;;;;;;;;;;;10.40;99.90;;;;;;5056373;28;19908;-75
2023/12/23 00:07:28;;;;;;;;;;;10.50;99.90;;;;;;5056914;28;19920;-75
2023/12/23 00:09:54;;;;;;;;;;;10.50;99.90;;;;;;5053604;28;19913;-75
2023/12/23 00:12:20;;;;;;;;;;;10.50;99.90;;;;;;5037058;28;19920;-80
2023/12/23 00:14:45;;;;;;;;;;;10.40;99.90;;;;;;5037164;28;20280;-75
2023/12/23 00:17:10;;;;;;;;;;;10.30;99.90;;;;;;5037693;28;20337;-76
2023/12/23 00:19:36;;;;;;;;;;;10.30;99.90;;;;;;5037124;28;19909;-74
2023/12/23 00:22:02;;;;;;;;;;;10.20;99.90;;;;;;5055168;28;19919;-75
2023/12/23 00:24:29;;;;;;;;;;;10.20;99.90;;;;;;5054664;28;19908;-80
2023/12/23 00:26:57;;;;;;;;;;;10.20;99.90;;;;;;5036685;28;19998;-75
2023/12/23 00:29:26;;;;;;;;;;;10.20;99.90;;;;;;5055033;28;19917;-75
2023/12/23 00:31:51;;;;;;;;;;;10.10;99.90;;;;;;5036477;28;20303;-75
2023/12/23 00:34:17;;;;;;;;;;;10.10;99.90;;;;;;5036700;28;19915;-75
2023/12/23 00:36:43;;;;;;;;;;;10.10;99.90;;;;;;5052895;28;19913;-75
2023/12/23 00:39:08;;;;;;;;;;;10.10;99.90;;;;;;5074182;28;20272;-75
2023/12/23 00:41:34;;;;;;;;;;;10.10;99.90;;;;;;5056443;28;19912;-80
2023/12/23 00:44:01;;;;;;;;;;;10.00;99.90;;;;;;5056253;28;20004;-76
2023/12/23 00:46:28;;;;;;;;;;;10.00;99.90;;;;;;5073817;28;19912;-75
2023/12/23 00:48:54;;;;;;;;;;;9.90;99.90;;;;;;5055962;28;19920;-75
2023/12/23 00:51:19;;;;;;;;;;;9.90;99.90;;;;;;5056181;28;19909;-75
2023/12/23 00:53:45;;;;;;;;;;;9.90;99.90;;;;;;5074104;28;20413;-75
2023/12/23 00:56:10;;;;;;;;;;;10.00;99.90;;;;;;5055942;28;20291;-79
2023/12/23 00:58:36;;;;;;;;;;;9.90;99.90;;;;;;5056418;28;19908;-75
2023/12/23 01:01:02;;;;;;;;;;;9.90;99.90;;;;;;5073543;28;19931;-75
2023/12/23 01:03:28;;;;;;;;;;;9.90;99.90;;;;;;5056083;28;19908;-76
2023/12/23 01:05:53;;;;;;;;;;;9.90;99.90;;;;;;5056324;28;20054;-75
2023/12/23 01:08:19;;;;;;;;;;;9.80;99.90;;;;;;5055532;28;20294;-75
2023/12/23 01:10:44;;;;;;;;;;;9.90;99.90;;;;;;5035838;28;19916;-75
2023/12/23 01:13:10;;;;;;;;;;;10.00;99.90;;;;;;5036118;28;20392;-79
2023/12/23 01:15:36;;;;;;;;;;;10.00;99.90;;;;;;5035826;28;19908;-75
2023/12/23 01:18:01;;;;;;;;;;;10.00;99.90;;;;;;5036029;28;20375;-80
2023/12/23 01:20:27;;;;;;;;;;;10.00;99.90;;;;;;5035846;28;19915;-76
2023/12/23 01:22:52;;;;;;;;;;;10.00;99.90;;;;;;5040581;28;19909;-75
2023/12/23 01:25:18;;;;;;;;;;;9.90;99.90;;;;;;5055837;28;20383;-75
2023/12/23 01:27:43;;;;;;;;;;;9.80;99.90;;;;;;5074128;28;19920;-75
2023/12/23 01:30:09;;;;;;;;;;;9.70;99.90;;;;;;5073740;28;19920;-75
2023/12/23 01:32:35;;;;;;;;;;;9.60;99.90;;;;;;5054903;28;19947;-75
2023/12/23 01:35:00;;;;;;;;;;;9.60;99.90;;;;;;5057965;28;19909;-75
2023/12/23 01:37:26;;;;;;;;;;;9.60;99.90;;;;;;5064646;28;19961;-75
2023/12/23 01:39:51;;;;;;;;;;;9.70;99.90;;;;;;5055313;28;19962;-75
2023/12/23 01:42:17;;;;;;;;;;;9.70;99.90;;;;;;5055663;28;20452;-75
2023/12/23 01:44:42;;;;;;;;;;;9.70;99.90;;;;;;5055310;28;19954;-79
2023/12/23 01:47:08;;;;;;;;;;;9.80;99.90;;;;;;5073600;28;19968;-75
2023/12/23 01:49:34;;;;;;;;;;;9.80;99.90;;;;;;5054639;28;20393;-75
2023/12/23 01:52:00;;;;;;;;;;;9.80;99.90;;;;;;5055752;28;20283;-75
2023/12/23 01:54:26;;;;;;;;;;;9.80;99.90;;;;;;5055545;28;19915;-80
2023/12/23 01:56:52;;;;;;;;;;;9.80;99.90;;;;;;5073720;28;19924;-75
2023/12/23 01:59:18;;;;;;;;;;;9.80;99.90;;;;;;5055386;28;19909;-75
2023/12/23 02:01:44;;;;;;;;;;;9.80;99.90;;;;;;5055557;28;19932;-80
2023/12/23 02:04:10;;;;;;;;;;;9.80;99.90;;;;;;5055423;28;19908;-75
2023/12/23 02:06:35;;;;;;;;;;;9.80;99.90;;;;;;5055353;28;19955;-75
2023/12/23 02:09:02;;;;;;;;;;;9.70;99.90;;;;;;5051875;28;19970;-80
2023/12/23 02:11:27;;;;;;;;;;;9.70;99.90;;;;;;5035544;28;19909;-75
2023/12/23 02:14:20;;;;;;;;;;;9.70;99.90;;;;;;5035506;28;20272;-75
2023/12/23 02:16:46;;;;;;;;;;;9.80;99.90;;;;;;5019003;28;19916;-75
2023/12/23 02:19:11;;;;;;;;;;;9.80;99.90;;;;;;5035393;28;19913;-76
2023/12/23 02:21:37;;;;;;;;;;;9.80;99.90;;;;;;5039002;28;19909;-75
2023/12/23 02:24:02;;;;;;;;;;;9.80;99.90;;;;;;5060413;28;20371;-80
2023/12/23 02:26:31;;;;;;;;;;;9.80;99.90;;;;;;5058951;28;19934;-75
2023/12/23 02:28:56;;;;;;;;;;;9.80;99.90;;;;;;5058913;28;19916;-75
2023/12/23 02:31:22;;;;;;;;;;;9.80;99.90;;;;;;5055495;28;19974;-75
2023/12/23 02:33:48;;;;;;;;;;;9.80;99.90;;;;;;5055483;28;19966;-75
2023/12/23 02:36:19;;;;;;;;;;;9.90;99.90;;;;;;5067805;28;19944;-75
2023/12/23 02:38:44;;;;;;;;;;;9.90;99.90;;;;;;5075316;28;19908;-75
2023/12/23 02:41:10;;;;;;;;;;;9.90;99.90;;;;;;5076579;28;19908;-79
2023/12/23 02:43:35;;;;;;;;;;;10.00;99.90;;;;;;5075307;28;19909;-79
2023/12/23 02:46:01;;;;;;;;;;;9.90;99.90;;;;;;5075130;28;19912;-75
2023/12/23 02:48:26;;;;;;;;;;;10.00;99.90;;;;;;5075108;28;20406;-75
2023/12/23 02:50:52;;;;;;;;;;;10.00;99.90;;;;;;5057120;28;19909;-75
2023/12/23 02:53:17;;;;;;;;;;;10.00;99.90;;;;;;5055327;28;19920;-75
2023/12/23 02:55:43;;;;;;;;;;;9.90;99.90;;;;;;5055213;28;20291;-80
2023/12/23 02:58:09;;;;;;;;;;;10.00;99.90;;;;;;5055112;28;19919;-75
2023/12/23 03:00:35;;;;;;;;;;;10.00;99.90;;;;;;5054958;28;19920;-75
2023/12/23 03:03:01;;;;;;;;;;;10.00;99.90;;;;;;5055174;28;19913;-75
2023/12/23 03:05:26;;;;;;;;;;;10.00;99.90;;;;;;5054265;28;19928;-75
2023/12/23 03:07:52;;;;;;;;;;;10.00;99.90;;;;;;5054975;28;20387;-75
2023/12/23 03:10:17;;;;;;;;;;;10.00;99.90;;;;;;5054745;28;19909;-75
2023/12/23 03:12:43;;;;;;;;;;;10.10;99.90;;;;;;5054665;28;19909;-75
2023/12/23 03:15:09;;;;;;;;;;;10.10;99.90;;;;;;5054813;28;20291;-80
2023/12/23 03:17:34;;;;;;;;;;;10.00;99.90;;;;;;5054825;28;19909;-75
2023/12/23 03:20:00;;;;;;;;;;;10.00;99.90;;;;;;5054670;28;19909;-76
2023/12/23 03:22:26;;;;;;;;;;;10.00;99.90;;;;;;5052059;28;20407;-75
2023/12/23 03:24:51;;;;;;;;;;;10.00;99.90;;;;;;5054584;28;20405;-78
2023/12/23 03:27:18;;;;;;;;;;;10.00;99.90;;;;;;5054676;28;19908;-75
2023/12/23 03:29:44;;;;;;;;;;;10.00;99.90;;;;;;5056019;28;20310;-75
2023/12/23 03:32:10;;;;;;;;;;;10.00;99.90;;;;;;5072955;28;19924;-75
2023/12/23 03:34:35;;;;;;;;;;;10.10;99.90;;;;;;5057694;28;20003;-75
2023/12/23 03:37:01;;;;;;;;;;;10.10;99.90;;;;;;5038745;28;19919;-75
2023/12/23 03:39:26;;;;;;;;;;;10.10;99.90;;;;;;5037401;28;19920;-75
2023/12/23 03:41:52;;;;;;;;;;;10.20;99.90;;;;;;5056026;28;19948;-75
2023/12/23 03:44:17;;;;;;;;;;;10.20;99.90;;;;;;5037652;28;19909;-75
2023/12/23 03:46:43;;;;;;;;;;;10.20;99.90;;;;;;5037635;28;19912;-79
2023/12/23 03:49:08;;;;;;;;;;;10.20;99.90;;;;;;5059980;28;19922;-76
2023/12/23 03:51:34;;;;;;;;;;;10.20;99.90;;;;;;5057878;28;19915;-75
2023/12/23 03:53:59;;;;;;;;;;;10.30;99.90;;;;;;5075771;28;19908;-75
2023/12/23 03:56:25;;;;;;;;;;;10.30;99.90;;;;;;5057130;28;20279;-75
2023/12/23 03:58:50;;;;;;;;;;;10.40;99.90;;;;;;5057267;28;19916;-75
2023/12/23 04:01:17;;;;;;;;;;;10.40;99.90;;;;;;5056992;28;19908;-75
2023/12/23 04:03:43;;;;;;;;;;;10.40;99.90;;;;;;5057256;28;19947;-78
2023/12/23 04:06:11;;;;;;;;;;;10.40;99.90;;;;;;5074688;28;20409;-75
2023/12/23 04:08:37;;;;;;;;;;;10.40;99.90;;;;;;5056818;28;20409;-75
2023/12/23 04:11:03;;;;;;;;;;;10.50;99.90;;;;;;5057175;28;19915;-75
2023/12/23 04:13:29;;;;;;;;;;;10.50;99.90;;;;;;5074826;28;19909;-75
2023/12/23 04:15:54;;;;;;;;;;;10.50;99.90;;;;;;5056946;28;19923;-75
2023/12/23 04:18:20;;;;;;;;;;;10.50;99.90;;;;;;5056823;28;19912;-75
2023/12/23 04:20:46;;;;;;;;;;;10.60;99.90;;;;;;5056705;28;19908;-75
2023/12/23 04:23:11;;;;;;;;;;;10.60;99.90;;;;;;5050936;28;19992;-75
2023/12/23 04:25:37;;;;;;;;;;;10.60;99.90;;;;;;5056837;28;19913;-75
2023/12/23 04:28:03;;;;;;;;;;;10.60;99.90;;;;;;5075103;28;20035;-80
2023/12/23 04:30:28;;;;;;;;;;;10.60;99.90;;;;;;5056478;28;19928;-75
2023/12/23 04:32:54;;;;;;;;;;;10.60;99.90;;;;;;5074761;28;19909;-75
2023/12/23 04:35:19;;;;;;;;;;;10.60;99.90;;;;;;5079430;28;20362;-79
2023/12/23 04:37:45;;;;;;;;;;;10.50;99.90;;;;;;5076501;28;19915;-75
2023/12/23 04:40:11;;;;;;;;;;;10.40;99.90;;;;;;5076182;28;19908;-75
2023/12/23 04:42:36;;;;;;;;;;;10.40;99.90;;;;;;5076483;28;19909;-75
2023/12/23 04:45:02;;;;;;;;;;;10.40;99.90;;;;;;5075506;28;19908;-75
2023/12/23 04:47:31;;;;;;;;;;;10.40;99.90;;;;;;5067938;28;19950;-75
2023/12/23 04:49:56;;;;;;;;;;;10.40;99.90;;;;;;5062460;28;19980;-75
2023/12/23 04:52:22;;;;;;;;;;;10.40;99.90;;;;;;5036292;28;19921;-75
2023/12/23 04:54:47;;;;;;;;;;;10.40;99.90;;;;;;5036177;28;19919;-75
2023/12/23 04:57:13;;;;;;;;;;;10.40;99.90;;;;;;5054185;28;19917;-75
2023/12/23 04:59:38;;;;;;;;;;;10.40;99.90;;;;;;5049541;28;20355;-75
2023/12/23 05:02:04;;;;;;;;;;;10.30;99.90;;;;;;5056490;28;19909;-76
2023/12/23 05:04:29;;;;;;;;;;;10.30;99.90;;;;;;5056622;28;19915;-79
2023/12/23 05:06:57;;;;;;;;;;;10.30;99.90;;;;;;5056029;28;19915;-75
2023/12/23 05:09:22;;;;;;;;;;;10.30;99.90;;;;;;5052411;28;19944;-80
2023/12/23 05:11:48;;;;;;;;;;;10.30;99.90;;;;;;5052778;28;20410;-75
2023/12/23 05:14:13;;;;;;;;;;;10.30;99.90;;;;;;5036038;28;20427;-75
2023/12/23 05:16:39;;;;;;;;;;;10.30;99.90;;;;;;5035900;28;19916;-80
2023/12/23 05:19:04;;;;;;;;;;;10.30;99.90;;;;;;5053522;28;20007;-80
2023/12/23 05:21:30;;;;;;;;;;;10.30;99.90;;;;;;5053836;28;19966;-79
2023/12/23 05:23:55;;;;;;;;;;;10.30;99.90;;;;;;5063231;28;20425;-75
2023/12/23 05:26:21;;;;;;;;;;;10.20;99.90;;;;;;5035731;28;20026;-80
2023/12/23 05:28:46;;;;;;;;;;;10.20;99.90;;;;;;5053099;28;20457;-75
2023/12/23 05:31:12;;;;;;;;;;;10.20;99.90;;;;;;5035851;28;19927;-79
2023/12/23 05:33:37;;;;;;;;;;;10.20;99.90;;;;;;5052509;28;19909;-74
2023/12/23 05:36:03;;;;;;;;;;;10.20;99.90;;;;;;5062931;28;19908;-80
2023/12/23 05:38:28;;;;;;;;;;;10.20;99.90;;;;;;5073687;28;19932;-75
2023/12/23 05:40:55;;;;;;;;;;;10.20;99.90;;;;;;5073695;28;20282;-75
2023/12/23 05:43:21;;;;;;;;;;;10.20;99.90;;;;;;5068788;28;19909;-79
2023/12/23 05:45:47;;;;;;;;;;;10.20;99.90;;;;;;5047691;28;19909;-75
2023/12/23 05:48:13;;;;;;;;;;;10.20;99.90;;;;;;5052219;28;19913;-75
2023/12/23 05:50:38;;;;;;;;;;;10.20;99.90;;;;;;5052149;28;19909;-75
2023/12/23 05:53:04;;;;;;;;;;;10.20;99.90;;;;;;5052160;28;19909;-76
2023/12/23 05:55:32;;;;;;;;;;;10.20;99.90;;;;;;5053307;28;19908;-75
2023/12/23 05:57:58;;;;;;;;;;;10.20;99.90;;;;;;5056407;28;20295;-75
2023/12/23 06:00:23;;;;;;;;;;;10.20;99.90;;;;;;5057534;28;19913;-75
2023/12/23 06:02:49;;;;;;;;;;;10.20;99.90;;;;;;5057349;28;20264;-75
2023/12/23 06:05:14;;;;;;;;;;;10.30;99.90;;;;;;5056069;28;20387;-75
2023/12/23 06:07:40;;;;;;;;;;;10.30;99.90;;;;;;5055912;28;19995;-76
2023/12/23 06:10:06;;;;;;;;;;;10.30;99.90;;;;;;5056991;28;19942;-76
2023/12/23 06:12:32;;;;;;;;;;;10.40;99.90;;;;;;5051530;28;20398;-75
2023/12/23 06:14:58;;;;;;;;;;;10.40;99.90;;;;;;5036659;28;19944;-76
2023/12/23 06:17:24;;;;;;;;;;;10.30;99.90;;;;;;5037656;28;19909;-76
2023/12/23 06:19:50;;;;;;;;;;;10.20;99.90;;;;;;5035916;28;19916;-75
2023/12/23 06:22:15;;;;;;;;;;;10.20;99.90;;;;;;5038142;28;19917;-76
2023/12/23 06:24:41;;;;;;;;;;;10.10;99.90;;;;;;5040114;28;19967;-76
2023/12/23 06:27:06;;;;;;;;;;;10.10;99.90;;;;;;5035930;28;19913;-75
2023/12/23 06:29:32;;;;;;;;;;;10.00;99.90;;;;;;5035672;28;19979;-75
2023/12/23 06:31:59;;;;;;;;;;;10.00;99.90;;;;;;5035527;28;19921;-80
2023/12/23 06:34:25;;;;;;;;;;;10.00;99.90;;;;;;5035851;28;19916;-79
2023/12/23 06:36:50;;;;;;;;;;;9.90;99.90;;;;;;5066729;28;19912;-76
2023/12/23 06:39:16;;;;;;;;;;;9.90;99.90;;;;;;5055321;28;19909;-80
2023/12/23 06:41:41;;;;;;;;;;;9.80;99.90;;;;;;5056583;28;19913;-75
2023/12/23 06:44:07;;;;;;;;;;;9.80;99.90;;;;;;5055437;28;19916;-76
2023/12/23 06:46:32;;;;;;;;;;;9.80;99.90;;;;;;5055546;28;19959;-76
2023/12/23 06:48:58;;;;;;;;;;;9.80;99.90;;;;;;5054917;28;19935;-76
2023/12/23 06:51:23;;;;;;;;;;;9.70;99.90;;;;;;5055142;28;19908;-76
2023/12/23 06:53:49;;;;;;;;;;;9.70;99.90;;;;;;5055134;28;19909;-76
2023/12/23 06:56:15;;;;;;;;;;;9.70;99.90;;;;;;5056391;28;19916;-76
2023/12/23 06:58:40;;;;;;;;;;;9.60;99.90;;;;;;5050237;28;19912;-76
2023/12/23 07:01:06;;;;;;;;;;;9.60;99.90;;;;;;5036900;28;19909;-76
2023/12/23 07:03:31;;;;;;;;;;;9.50;99.90;;;;;;5034961;28;19917;-75
2023/12/23 07:05:57;;;;;;;;;;;9.60;99.90;;;;;;5036326;28;19909;-80
2023/12/23 07:08:23;;;;;;;;;;;9.50;99.90;;;;;;5033622;28;20307;-76
2023/12/23 07:10:49;;;;;;;;;;;9.60;99.90;;;;;;5036207;28;20327;-76
2023/12/23 07:13:15;;;;;;;;;;;9.70;99.90;;;;;;5036327;28;19920;-80
2023/12/23 07:15:40;;;;;;;;;;;9.80;99.90;;;;;;5036421;28;19910;-76
2023/12/23 07:18:06;;;;;;;;;;;9.80;99.90;;;;;;5034818;28;19999;-76
2023/12/23 07:20:32;;;;;;;;;;;9.90;99.90;;;;;;5034441;28;19920;-80
2023/12/23 07:22:57;;;;;;;;;;;9.90;99.90;;;;;;5035473;28;20290;-76
2023/12/23 07:25:23;;;;;;;;;;;9.90;99.90;;;;;;5043735;28;19916;-76
2023/12/23 07:27:48;;;;;;;;;;;9.90;99.90;;;;;;5035326;28;20278;-76
2023/12/23 07:30:14;;;;;;;;;;;9.80;99.90;;;;;;5036235;28;19956;-76
2023/12/23 07:32:43;;;;;;;;;;;9.80;99.90;;;;;;5053201;28;20362;-76
2023/12/23 07:35:08;;;;;;;;;;;9.80;99.90;;;;;;5065407;28;19913;-76
2023/12/23 07:37:34;;;;;;;;;;;9.70;99.90;;;;;;5057602;28;19913;-75
2023/12/23 07:40:04;;;;;;;;;;;9.70;99.90;;;;;;5055595;28;20394;-76
2023/12/23 07:42:30;;;;;;;;;;;9.60;99.90;;;;;;5057592;28;19909;-80
2023/12/23 07:44:56;;;;;;;;;;;9.70;99.90;;;;;;5075701;28;19915;-80
2023/12/23 07:47:21;;;;;;;;;;;9.70;99.90;;;;;;5057455;28;19912;-76
2023/12/23 07:49:47;;;;;;;;;;;9.60;99.90;;;;;;5057177;28;19923;-80
2023/12/23 07:52:12;;;;;;;;;;;9.50;99.90;;;;;;5075366;28;20378;-76
2023/12/23 07:54:38;;;;;;;;;;;9.50;99.90;;;;;;5057394;28;19993;-80
2023/12/23 07:57:04;;;;;;;;;;;9.60;99.90;;;;;;5075246;28;19995;-75
2023/12/23 07:59:29;;;;;;;;;;;9.60;99.90;;;;;;5057298;28;19908;-76
2023/12/23 08:01:55;;;;;;;;;;;9.60;99.90;;;;;;5057259;28;19964;-75
2023/12/23 08:04:20;;;;;;;;;;;9.70;99.90;;;;;;5057112;28;19909;-79
2023/12/23 08:06:46;;;;;;;;;;;9.70;99.90;;;;;;5057122;28;19908;-76
2023/12/23 08:09:11;;;;;;;;;;;9.80;99.90;;;;;;5074948;28;19916;-76
2023/12/23 08:11:37;;;;;;;;;;;9.80;99.90;;;;;;5057226;28;20375;-76
2023/12/23 08:14:03;;;;;;;;;;;9.90;99.90;;;;;;5074595;28;19913;-80
2023/12/23 08:16:28;;;;;;;;;;;9.90;99.90;;;;;;5075115;28;19908;-79
2023/12/23 08:18:54;;;;;;;;;;;9.80;99.90;;;;;;5056441;28;19909;-76
2023/12/23 08:21:23;;;;;;;;;;;9.80;99.90;;;;;;5056725;28;19908;-76
2023/12/23 08:23:48;;;;;;;;;;;9.80;99.90;;;;;;5045088;28;19913;-79
2023/12/23 08:26:13;;;;;;;;;;;9.90;99.90;;;;;;5038397;28;20375;-76
2023/12/23 08:28:39;;;;;;;;;;;10.10;99.90;;;;;;5036568;28;19924;-80
2023/12/23 08:31:05;;;;;;;;;;;10.20;99.90;;;;;;5039022;28;19928;-80
2023/12/23 08:33:32;;;;;;;;;;;10.20;99.90;;;;;;5056484;28;19995;-76
2023/12/23 08:35:58;;;;;;;;;;;10.30;99.90;;;;;;5048931;28;20438;-80
2023/12/23 08:38:23;;;;;;;;;;;10.30;99.90;;;;;;5036269;28;19998;-80
2023/12/23 08:40:49;;;;;;;;;;;10.30;99.90;;;;;;5036738;28;19956;-80
2023/12/23 08:43:16;;;;;;;;;;;10.40;99.90;;;;;;5036579;28;19930;-76
2023/12/23 08:45:41;;;;;;;;;;;10.40;99.90;;;;;;5036333;28;19952;-76
2023/12/23 08:48:07;;;;;;;;;;;10.40;99.90;;;;;;5054264;28;20355;-76
2023/12/23 08:50:32;;;;;;;;;;;10.50;99.90;;;;;;5039619;28;19912;-76
2023/12/23 08:52:58;;;;;;;;;;;10.50;99.90;;;;;;5056155;28;19915;-76
2023/12/23 08:55:24;;;;;;;;;;;10.60;99.90;;;;;;5074055;28;19912;-80
2023/12/23 08:57:49;;;;;;;;;;;10.60;99.90;;;;;;5056091;28;19908;-76
2023/12/23 09:00:15;;;;;;;;;;;10.70;99.90;;;;;;5055999;28;19916;-80
2023/12/23 09:02:40;;;;;;;;;;;10.70;99.90;;;;;;5055990;28;19958;-76
2023/12/23 09:05:06;;;;;;;;;;;10.80;99.90;;;;;;5056154;28;20404;-76
2023/12/23 09:07:32;;;;;;;;;;;10.80;99.90;;;;;;5056086;28;19955;-76
2023/12/23 09:09:57;;;;;;;;;;;10.90;99.90;;;;;;5073828;28;19916;-76
2023/12/23 09:12:23;;;;;;;;;;;11.00;99.90;;;;;;5073946;28;19908;-76
2023/12/23 09:14:51;;;;;;;;;;;11.00;99.90;;;;;;5055925;28;20344;-76
2023/12/23 09:17:16;;;;;;;;;;;10.90;99.90;;;;;;5074034;28;19908;-80
2023/12/23 09:19:42;;;;;;;;;;;10.90;99.90;;;;;;5055921;28;20003;-76
2023/12/23 09:22:11;;;;;;;;;;;11.00;99.90;;;;;;5054865;28;19919;-80
2023/12/23 09:24:36;;;;;;;;;;;11.00;99.90;;;;;;5042442;28;20000;-76
2023/12/23 09:27:02;;;;;;;;;;;11.10;99.90;;;;;;5055905;28;19951;-76
2023/12/23 09:29:27;;;;;;;;;;;11.10;99.90;;;;;;5055549;28;20018;-76
2023/12/23 09:31:53;;;;;;;;;;;11.20;99.90;;;;;;5073300;28;20372;-76
2023/12/23 09:34:20;;;;;;;;;;;11.40;99.90;;;;;;5055837;28;19915;-81
2023/12/23 09:36:46;;;;;;;;;;;11.40;99.90;;;;;;5055670;28;19916;-75
2023/12/23 09:39:12;;;;;;;;;;;11.40;99.90;;;;;;5054847;28;19912;-75
2023/12/23 09:41:40;;;;;;;;;;;11.40;99.90;;;;;;5050265;28;19912;-80
2023/12/23 09:44:05;;;;;;;;;;;11.40;99.90;;;;;;5061974;28;20287;-75
2023/12/23 09:46:31;;;;;;;;;;;11.40;99.90;;;;;;5035440;28;19915;-76
2023/12/23 09:48:57;;;;;;;;;;;11.40;99.90;;;;;;5035549;28;19912;-80
2023/12/23 09:51:24;;;;;;;;;;;11.50;99.90;;;;;;5064206;28;19912;-80
2023/12/23 09:53:51;;;;;;;;;;;11.60;99.90;;;;;;5055508;28;19915;-76
2023/12/23 09:56:16;;;;;;;;;;;11.70;99.90;;;;;;5073377;28;19997;-80
2023/12/23 09:58:43;;;;;;;;;;;12.00;99.90;;;;;;5073473;28;19963;-80
2023/12/23 10:01:09;;;;;;;;;;;12.40;99.90;;;;;;5055270;28;19955;-76
2023/12/23 10:03:34;;;;;;;;;;;12.50;99.90;;;;;;5055508;28;19908;-76
2023/12/23 10:06:03;;;;;;;;;;;12.30;99.90;;;;;;5055085;28;19963;-81
2023/12/23 10:08:29;;;;;;;;;;;12.40;99.90;;;;;;5054067;28;19985;-81
2023/12/23 10:10:54;;;;;;;;;;;12.40;99.90;;;;;;5035342;28;19947;-80
2023/12/23 10:13:20;;;;;;;;;;;12.30;99.90;;;;;;5053197;28;19909;-80
2023/12/23 10:15:45;;;;;;;;;;;12.40;99.90;;;;;;5053433;28;20359;-80
2023/12/23 10:18:11;;;;;;;;;;;12.40;99.90;;;;;;5035204;28;19913;-80
2023/12/23 10:20:37;;;;;;;;;;;12.40;99.90;;;;;;5035376;28;19955;-76
2023/12/23 10:23:02;;;;;;;;;;;12.50;99.90;;;;;;5036825;28;19916;-80
2023/12/23 10:25:29;;;;;;;;;;;12.50;99.90;;;;;;5046855;28;19913;-75
2023/12/23 10:27:57;;;;;;;;;;;12.70;99.90;;;;;;5073488;28;19908;-80
2023/12/23 10:30:24;;;;;;;;;;;12.70;99.90;;;;;;5073231;28;20033;-81
2023/12/23 10:32:52;;;;;;;;;;;12.80;99.90;;;;;;5055261;28;19908;-80
2023/12/23 10:35:19;;;;;;;;;;;12.80;99.90;;;;;;5072891;28;19909;-76
2023/12/23 10:37:44;;;;;;;;;;;12.90;99.90;;;;;;5054929;28;19915;-81
2023/12/23 10:40:13;;;;;;;;;;;12.90;99.90;;;;;;5054961;28;19908;-81
2023/12/23 10:42:41;;;;;;;;;;;12.80;99.90;;;;;;5057892;28;19912;-81
2023/12/23 10:45:07;;;;;;;;;;;12.60;99.90;;;;;;5067260;28;20310;-81
2023/12/23 10:47:33;;;;;;;;;;;12.40;99.90;;;;;;5079655;28;19915;-80
2023/12/23 10:50:01;;;;;;;;;;;12.30;99.90;;;;;;5096720;28;19943;-75
2023/12/23 10:52:28;;;;;;;;;;;12.30;99.90;;;;;;5058952;28;19919;-76
2023/12/23 10:54:53;;;;;;;;;;;12.30;99.90;;;;;;5058377;28;19954;-76
2023/12/23 10:57:20;;;;;;;;;;;12.60;99.90;;;;;;5091835;28;20294;-81
2023/12/23 10:59:46;;;;;;;;;;;12.70;99.90;;;;;;5078720;28;19919;-81
2023/12/23 11:02:13;;;;;;;;;;;12.80;99.90;;;;;;5078897;28;19916;-81
2023/12/23 11:04:41;;;;;;;;;;;12.70;99.90;;;;;;5078691;28;19908;-81
2023/12/23 11:07:07;;;;;;;;;;;12.80;99.90;;;;;;5096943;28;19908;-80
2023/12/23 11:09:33;;;;;;;;;;;12.80;99.90;;;;;;5078407;28;20263;-81
2023/12/23 11:11:58;;;;;;;;;;;12.80;99.90;;;;;;5096362;28;19908;-76
2023/12/23 11:14:24;;;;;;;;;;;12.90;99.90;;;;;;5096488;28;19915;-76
2023/12/23 11:16:50;;;;;;;;;;;13.00;99.90;;;;;;5078386;28;20671;-76
2023/12/23 11:19:15;;;;;;;;;;;13.10;99.90;;;;;;5078411;28;20007;-81
2023/12/23 11:21:41;;;;;;;;;;;13.10;99.90;;;;;;5077039;28;19913;-82
2023/12/23 11:24:36;;;;;;;;;;;12.90;99.90;;;;;;5049524;28;19908;-80
2023/12/23 11:27:01;;;;;;;;;;;12.70;99.90;;;;;;5036976;28;19914;-81
2023/12/23 11:29:27;;;;;;;;;;;12.60;99.90;;;;;;5057263;28;20015;-76
2023/12/23 11:32:13;;;;;;;;;;;12.70;99.90;;;;;;5075648;28;19999;-76
2023/12/23 11:34:39;;;;;;;;;;;12.80;99.90;;;;;;5057427;28;20374;-81
2023/12/23 11:37:05;;;;;;;;;;;12.70;99.90;;;;;;5057762;28;19954;-81
2023/12/23 11:39:30;;;;;;;;;;;12.90;99.90;;;;;;5057401;28;19935;-76
2023/12/23 11:41:57;;;;;;;;;;;13.10;99.90;;;;;;5057701;28;19958;-76
2023/12/23 11:44:23;;;;;;;;;;;13.20;99.90;;;;;;5057664;28;19982;-76
2023/12/23 11:46:48;;;;;;;;;;;13.30;99.90;;;;;;5075849;28;19955;-81
2023/12/23 11:49:14;;;;;;;;;;;13.10;99.90;;;;;;5057617;28;20445;-76
2023/12/23 11:51:39;;;;;;;;;;;13.10;99.90;;;;;;5075429;28;19908;-81
2023/12/23 11:54:06;;;;;;;;;;;13.10;99.90;;;;;;5057416;28;19961;-76
2023/12/23 11:56:32;;;;;;;;;;;13.00;99.90;;;;;;5075376;28;19908;-81
2023/12/23 11:59:00;;;;;;;;;;;13.00;99.90;;;;;;5057738;28;19932;-76
2023/12/23 12:01:26;;;;;;;;;;;13.20;99.90;;;;;;5075337;28;19916;-81
2023/12/23 12:03:51;;;;;;;;;;;13.30;99.90;;;;;;5057418;28;20286;-81
2023/12/23 12:06:17;;;;;;;;;;;13.30;99.90;;;;;;5057226;28;19912;-76
2023/12/23 12:08:42;;;;;;;;;;;13.40;99.90;;;;;;5057176;28;19962;-81
2023/12/23 12:11:08;;;;;;;;;;;13.20;99.90;;;;;;5057321;28;19912;-81
2023/12/23 12:13:34;;;;;;;;;;;13.20;99.90;;;;;;5058223;28;19909;-81
2023/12/23 12:16:00;;;;;;;;;;;13.00;99.90;;;;;;5075371;28;20362;-81
2023/12/23 12:18:25;;;;;;;;;;;12.90;99.90;;;;;;5057009;28;19908;-76
2023/12/23 12:20:51;;;;;;;;;;;12.80;99.90;;;;;;5056822;28;20020;-76
2023/12/23 12:23:16;;;;;;;;;;;12.80;99.90;;;;;;5056924;28;19908;-81
2023/12/23 12:25:48;;;;;;;;;;;12.70;99.90;;;;;;5074841;28;20063;-81
2023/12/23 12:28:14;;;;;;;;;;;12.70;99.90;;;;;;5057149;28;19921;-81
2023/12/23 12:30:40;;;;;;;;;;;12.70;99.90;;;;;;5053472;28;19927;-81
2023/12/23 12:33:05;;;;;;;;;;;12.50;99.90;;;;;;5053966;28;20303;-81
2023/12/23 12:35:31;;;;;;;;;;;12.40;99.90;;;;;;5059630;28;19938;-75
2023/12/23 12:37:56;;;;;;;;;;;12.40;99.90;;;;;;5074323;28;20402;-81
2023/12/23 12:40:22;;;;;;;;;;;12.30;99.90;;;;;;5073458;28;20343;-80
2023/12/23 12:42:50;;;;;;;;;;;12.30;99.90;;;;;;5073051;28;20043;-76
2023/12/23 12:45:15;;;;;;;;;;;12.40;99.90;;;;;;5073184;28;19995;-81
2023/12/23 12:47:41;;;;;;;;;;;12.60;99.90;;;;;;5073107;28;20347;-75
2023/12/23 12:50:07;;;;;;;;;;;12.90;99.90;;;;;;5073690;28;19912;-80
2023/12/23 12:52:34;;;;;;;;;;;12.90;99.90;;;;;;5054594;28;19916;-76
2023/12/23 12:55:06;;;;;;;;;;;12.80;99.90;;;;;;5053204;28;19916;-76
2023/12/23 12:57:32;;;;;;;;;;;12.60;99.90;;;;;;5053503;28;19927;-81
2023/12/23 12:59:58;;;;;;;;;;;12.50;99.90;;;;;;5054591;28;19912;-76
2023/12/23 13:02:23;;;;;;;;;;;12.70;99.90;;;;;;5053168;28;19909;-80
2023/12/23 13:04:49;;;;;;;;;;;12.80;99.90;;;;;;5051403;28;19913;-81
2023/12/23 13:07:15;;;;;;;;;;;12.80;99.90;;;;;;5054203;28;19912;-81
2023/12/23 13:09:40;;;;;;;;;;;12.60;99.90;;;;;;5049540;28;20379;-81
2023/12/23 13:12:08;;;;;;;;;;;12.30;99.90;;;;;;5032665;28;20005;-81
2023/12/23 13:14:34;;;;;;;;;;;12.30;99.90;;;;;;5033525;28;19909;-81
2023/12/23 13:16:59;;;;;;;;;;;12.20;99.90;;;;;;5034515;28;19909;-75
2023/12/23 13:19:25;;;;;;;;;;;12.10;99.90;;;;;;5033436;28;20011;-81
2023/12/23 13:21:50;;;;;;;;;;;12.10;99.90;;;;;;5034396;28;19909;-75
2023/12/23 13:24:16;;;;;;;;;;;12.10;99.90;;;;;;5048663;28;20390;-75
2023/12/23 13:26:41;;;;;;;;;;;12.10;99.90;;;;;;5052780;28;19917;-80
2023/12/23 13:29:07;;;;;;;;;;;12.20;99.90;;;;;;5053821;28;20276;-76
2023/12/23 13:31:33;;;;;;;;;;;12.30;99.90;;;;;;5052524;28;19921;-80
2023/12/23 13:33:58;;;;;;;;;;;12.60;99.90;;;;;;5053288;28;19913;-76
2023/12/23 13:36:24;;;;;;;;;;;12.70;99.90;;;;;;5051948;28;20375;-80
2023/12/23 13:38:50;;;;;;;;;;;12.80;99.90;;;;;;5052310;28;20318;-81
2023/12/23 13:41:20;;;;;;;;;;;12.50;99.90;;;;;;5053095;28;19996;-81
2023/12/23 13:43:46;;;;;;;;;;;12.30;99.90;;;;;;5053672;28;19909;-80
2023/12/23 13:46:12;;;;;;;;;;;12.20;99.90;;;;;;5052385;28;20433;-80
2023/12/23 13:48:37;;;;;;;;;;;12.10;99.90;;;;;;5052494;28;19932;-81
2023/12/23 13:51:04;;;;;;;;;;;12.20;99.90;;;;;;5052895;28;19913;-80
2023/12/23 13:53:29;;;;;;;;;;;12.50;99.90;;;;;;5052621;28;19916;-77
2023/12/23 13:55:55;;;;;;;;;;;12.70;99.90;;;;;;5052866;28;19909;-80
2023/12/23 13:58:21;;;;;;;;;;;12.70;99.90;;;;;;5053994;28;19916;-80
2023/12/23 14:00:46;;;;;;;;;;;12.50;99.90;;;;;;5052486;28;20030;-76
2023/12/23 14:03:12;;;;;;;;;;;12.30;99.90;;;;;;5052442;28;19913;-81
2023/12/23 14:05:38;;;;;;;;;;;12.30;99.90;;;;;;5052413;28;20407;-76
2023/12/23 14:08:04;;;;;;;;;;;12.30;99.90;;;;;;5051974;28;19915;-81
2023/12/23 14:10:33;;;;;;;;;;;12.20;99.90;;;;;;5052687;28;19912;-81
2023/12/23 14:12:58;;;;;;;;;;;12.20;99.90;;;;;;5052193;28;20344;-76